KCEZ/CEZ METAR and TAF weather

Enter ICAO airport designator
Station Type Date Time Source
KCEZ METAR 2021/09/16 20:53 UTC NOAA

KCEZ 162053Z AUTO 20008G17KT 10SM CLR 29/00 A3006 RMK AO2 SLP108 T02890000 57011


Station Type Date Time Source
KCEZ Decoded METAR 2021/09/16 20:53 UTC NOAA

CORTEZ MONTEZUMA COUNTY AIRPORT , CO, United States (KCEZ) 37-18N 108-38W 1797M
Sep 16, 2021 - 04:53 PM EDT / 2021.09.16 2053 UTC
Wind: from the SSW (200 degrees) at 9 MPH (8 KT) gusting to 20 MPH (17 KT):0
Visibility: 10 mile(s):0
Sky conditions: clear
Temperature: 84.0 F (28.9 C)
Dew Point: 32.0 F (0.0 C)
Relative Humidity: 15%
Pressure (altimeter): 30.06 in. Hg (1017 hPa)
Pressure tendency: 0.03 inches (1.1 hPa) lower than three hours ago
ob: KCEZ 162053Z AUTO 20008G17KT 10SM CLR 29/00 A3006 RMK AO2 SLP108 T02890000 57011
cycle: 21

Station Type Date Time Source
KCEZ TAF UTC NOAA

Error!

Example: see airport list